sensor_id;sensor_type;location;lat;lon;timestamp;pressure;altitude;pressure_sealevel;temperature;humidity
3598;BME280;1813;52.016;8.714;2024-02-28T00:00:49;-16261.94;;;-139.71;90.79
3598;BME280;1813;52.016;8.714;2024-02-28T00:03:23;-16261.94;;;-139.71;90.09
3598;BME280;1813;52.016;8.714;2024-02-28T00:05:56;-16261.94;;;-139.71;90.66
3598;BME280;1813;52.016;8.714;2024-02-28T00:08:30;-16261.94;;;-139.71;90.66
3598;BME280;1813;52.016;8.714;2024-02-28T00:11:03;-16261.94;;;-139.71;89.78
3598;BME280;1813;52.016;8.714;2024-02-28T00:13:39;-16261.94;;;-139.71;90.77
3598;BME280;1813;52.016;8.714;2024-02-28T00:16:12;-16261.94;;;-139.71;90.65
3598;BME280;1813;52.016;8.714;2024-02-28T00:18:46;-16261.94;;;-139.71;90.23
3598;BME280;1813;52.016;8.714;2024-02-28T00:21:19;-16261.94;;;-139.71;90.34
3598;BME280;1813;52.016;8.714;2024-02-28T00:23:52;-16261.94;;;-139.71;90.57
3598;BME280;1813;52.016;8.714;2024-02-28T00:26:26;-16261.94;;;-139.71;90.75
3598;BME280;1813;52.016;8.714;2024-02-28T00:29:02;-16261.94;;;-139.71;90.13
3598;BME280;1813;52.016;8.714;2024-02-28T00:31:35;-16261.94;;;-139.71;89.85
3598;BME280;1813;52.016;8.714;2024-02-28T00:34:09;-16261.94;;;-139.71;89.96
3598;BME280;1813;52.016;8.714;2024-02-28T00:36:42;-16261.94;;;-139.71;89.71
3598;BME280;1813;52.016;8.714;2024-02-28T00:39:15;-16261.94;;;-139.71;89.48
3598;BME280;1813;52.016;8.714;2024-02-28T00:41:49;-16261.94;;;-139.71;88.88
3598;BME280;1813;52.016;8.714;2024-02-28T00:44:25;-16261.94;;;-139.71;89.33
3598;BME280;1813;52.016;8.714;2024-02-28T00:46:59;-16261.94;;;-139.71;90.17
3598;BME280;1813;52.016;8.714;2024-02-28T00:49:32;-16261.94;;;-139.71;90.63
3598;BME280;1813;52.016;8.714;2024-02-28T00:52:05;-16261.94;;;-139.71;90.47
3598;BME280;1813;52.016;8.714;2024-02-28T00:54:39;-16261.94;;;-139.71;89.97
3598;BME280;1813;52.016;8.714;2024-02-28T00:57:12;-16261.94;;;-139.71;90.22
3598;BME280;1813;52.016;8.714;2024-02-28T00:59:48;-16261.94;;;-139.71;90.81
3598;BME280;1813;52.016;8.714;2024-02-28T01:02:21;-16261.94;;;-139.71;90.84
3598;BME280;1813;52.016;8.714;2024-02-28T01:04:55;-16261.94;;;-139.71;90.72
3598;BME280;1813;52.016;8.714;2024-02-28T01:07:28;-16261.94;;;-139.71;90.17
3598;BME280;1813;52.016;8.714;2024-02-28T01:10:01;-16261.94;;;-139.71;90.53
3598;BME280;1813;52.016;8.714;2024-02-28T01:12:35;-16261.94;;;-139.71;90.87
3598;BME280;1813;52.016;8.714;2024-02-28T01:15:11;-16261.94;;;-139.71;90.84
3598;BME280;1813;52.016;8.714;2024-02-28T01:17:44;-16261.94;;;-139.71;90.56
3598;BME280;1813;52.016;8.714;2024-02-28T01:20:18;-16261.94;;;-139.71;90.39
3598;BME280;1813;52.016;8.714;2024-02-28T01:22:51;-16261.94;;;-139.71;90.49
3598;BME280;1813;52.016;8.714;2024-02-28T01:25:24;-16261.94;;;-139.71;90.56
3598;BME280;1813;52.016;8.714;2024-02-28T01:27:58;-16261.94;;;-139.71;90.24
3598;BME280;1813;52.016;8.714;2024-02-28T01:30:33;-16261.94;;;-139.71;89.67
3598;BME280;1813;52.016;8.714;2024-02-28T01:33:07;-16261.94;;;-139.71;90.52
3598;BME280;1813;52.016;8.714;2024-02-28T01:35:40;-16261.94;;;-139.71;90.24
3598;BME280;1813;52.016;8.714;2024-02-28T01:38:13;-16261.94;;;-139.71;90.17
3598;BME280;1813;52.016;8.714;2024-02-28T01:40:47;-16261.94;;;-139.71;90.01
3598;BME280;1813;52.016;8.714;2024-02-28T01:43:20;-16261.94;;;-139.71;89.66
3598;BME280;1813;52.016;8.714;2024-02-28T01:45:57;-16261.94;;;-139.71;89.76
3598;BME280;1813;52.016;8.714;2024-02-28T01:48:32;-16261.94;;;-139.71;90.13
3598;BME280;1813;52.016;8.714;2024-02-28T01:51:06;-16261.94;;;-139.71;90.12
3598;BME280;1813;52.016;8.714;2024-02-28T01:53:39;-16261.94;;;-139.71;89.79
3598;BME280;1813;52.016;8.714;2024-02-28T01:56:14;-16261.94;;;-139.71;90.01
3598;BME280;1813;52.016;8.714;2024-02-28T01:58:49;-16261.94;;;-139.71;89.84
3598;BME280;1813;52.016;8.714;2024-02-28T02:01:26;-16261.94;;;-139.71;90.29
3598;BME280;1813;52.016;8.714;2024-02-28T02:03:59;-16261.94;;;-139.71;89.77
3598;BME280;1813;52.016;8.714;2024-02-28T02:06:33;-16261.94;;;-139.71;89.57
3598;BME280;1813;52.016;8.714;2024-02-28T02:09:10;-16261.94;;;-139.71;89.70
3598;BME280;1813;52.016;8.714;2024-02-28T02:11:44;-16261.94;;;-139.71;89.41
3598;BME280;1813;52.016;8.714;2024-02-28T02:14:17;-16261.94;;;-139.71;89.80
3598;BME280;1813;52.016;8.714;2024-02-28T02:16:53;-16261.94;;;-139.71;89.84
3598;BME280;1813;52.016;8.714;2024-02-28T02:19:27;-16261.94;;;-139.71;89.74
3598;BME280;1813;52.016;8.714;2024-02-28T02:22:02;-16261.94;;;-139.71;89.63
3598;BME280;1813;52.016;8.714;2024-02-28T02:24:40;-16261.94;;;-139.71;89.42
3598;BME280;1813;52.016;8.714;2024-02-28T02:27:14;-16261.94;;;-139.71;89.89
3598;BME280;1813;52.016;8.714;2024-02-28T02:29:47;-16261.94;;;-139.71;90.23
3598;BME280;1813;52.016;8.714;2024-02-28T02:32:20;-16261.94;;;-139.71;90.10
3598;BME280;1813;52.016;8.714;2024-02-28T02:34:54;-16261.94;;;-139.71;89.70
3598;BME280;1813;52.016;8.714;2024-02-28T02:37:27;-16261.94;;;-139.71;89.55
3598;BME280;1813;52.016;8.714;2024-02-28T02:40:04;-16261.94;;;-139.71;89.08
3598;BME280;1813;52.016;8.714;2024-02-28T02:42:37;-16261.94;;;-139.71;89.76
3598;BME280;1813;52.016;8.714;2024-02-28T02:45:11;-16261.94;;;-139.71;90.10
3598;BME280;1813;52.016;8.714;2024-02-28T02:47:44;-16261.94;;;-139.71;90.15
3598;BME280;1813;52.016;8.714;2024-02-28T02:50:17;-16261.94;;;-139.71;90.69
3598;BME280;1813;52.016;8.714;2024-02-28T02:52:51;-16261.94;;;-139.71;90.62
3598;BME280;1813;52.016;8.714;2024-02-28T02:55:27;-16261.94;;;-139.71;90.29
3598;BME280;1813;52.016;8.714;2024-02-28T02:58:00;-16261.94;;;-139.71;90.35
3598;BME280;1813;52.016;8.714;2024-02-28T03:00:33;-16261.94;;;-139.71;90.52
3598;BME280;1813;52.016;8.714;2024-02-28T03:03:06;-16261.94;;;-139.71;90.23
3598;BME280;1813;52.016;8.714;2024-02-28T03:05:40;-16261.94;;;-139.71;90.14
3598;BME280;1813;52.016;8.714;2024-02-28T03:08:13;-16261.94;;;-139.71;90.08
3598;BME280;1813;52.016;8.714;2024-02-28T03:10:50;-16261.94;;;-139.71;89.76
3598;BME280;1813;52.016;8.714;2024-02-28T03:13:25;-16261.94;;;-139.71;89.54
3598;BME280;1813;52.016;8.714;2024-02-28T03:15:58;-16261.94;;;-139.71;89.50
3598;BME280;1813;52.016;8.714;2024-02-28T03:18:32;-16261.94;;;-139.71;89.93
3598;BME280;1813;52.016;8.714;2024-02-28T03:21:05;-16261.94;;;-139.71;89.94
3598;BME280;1813;52.016;8.714;2024-02-28T03:23:38;-16261.94;;;-139.71;90.09
3598;BME280;1813;52.016;8.714;2024-02-28T03:26:14;-16261.94;;;-139.71;89.20
3598;BME280;1813;52.016;8.714;2024-02-28T03:28:48;-16261.94;;;-139.71;88.67
3598;BME280;1813;52.016;8.714;2024-02-28T03:31:21;-16261.94;;;-139.71;89.15
3598;BME280;1813;52.016;8.714;2024-02-28T03:33:54;-16261.94;;;-139.71;89.64
3598;BME280;1813;52.016;8.714;2024-02-28T03:36:28;-16261.94;;;-139.71;89.63
3598;BME280;1813;52.016;8.714;2024-02-28T03:39:02;-16261.94;;;-139.71;89.88
3598;BME280;1813;52.016;8.714;2024-02-28T03:41:39;-16261.94;;;-139.71;89.81
3598;BME280;1813;52.016;8.714;2024-02-28T03:44:12;-16261.94;;;-139.71;89.20
3598;BME280;1813;52.016;8.714;2024-02-28T03:46:45;-16261.94;;;-139.71;89.28
3598;BME280;1813;52.016;8.714;2024-02-28T03:49:19;-16261.94;;;-139.71;89.19
3598;BME280;1813;52.016;8.714;2024-02-28T03:51:52;-16261.94;;;-139.71;88.92
3598;BME280;1813;52.016;8.714;2024-02-28T03:54:25;-16261.94;;;-139.71;89.36
3598;BME280;1813;52.016;8.714;2024-02-28T03:57:01;-16261.94;;;-139.71;90.08
3598;BME280;1813;52.016;8.714;2024-02-28T03:59:35;-16261.94;;;-139.71;90.63
3598;BME280;1813;52.016;8.714;2024-02-28T04:02:09;-16261.94;;;-139.71;90.80
3598;BME280;1813;52.016;8.714;2024-02-28T04:04:43;-16261.94;;;-139.71;90.54
3598;BME280;1813;52.016;8.714;2024-02-28T04:07:16;-16261.94;;;-139.71;90.54
3598;BME280;1813;52.016;8.714;2024-02-28T04:09:49;-16261.94;;;-139.71;90.40
3598;BME280;1813;52.016;8.714;2024-02-28T04:12:25;-16261.94;;;-139.71;90.42
3598;BME280;1813;52.016;8.714;2024-02-28T04:14:58;-16261.94;;;-139.71;90.53
3598;BME280;1813;52.016;8.714;2024-02-28T04:17:32;-16261.94;;;-139.71;90.68
3598;BME280;1813;52.016;8.714;2024-02-28T04:20:08;-16261.94;;;-139.71;90.99
3598;BME280;1813;52.016;8.714;2024-02-28T04:22:41;-16261.94;;;-139.71;91.67
3598;BME280;1813;52.016;8.714;2024-02-28T04:25:15;-16261.94;;;-139.71;91.86
3598;BME280;1813;52.016;8.714;2024-02-28T04:27:51;-16261.94;;;-139.71;92.24
3598;BME280;1813;52.016;8.714;2024-02-28T04:30:25;-16261.94;;;-139.71;92.14
3598;BME280;1813;52.016;8.714;2024-02-28T04:32:58;-16261.94;;;-139.71;92.27
3598;BME280;1813;52.016;8.714;2024-02-28T04:35:36;-16261.94;;;-139.71;92.80
3598;BME280;1813;52.016;8.714;2024-02-28T04:38:09;-16261.94;;;-139.71;92.90
3598;BME280;1813;52.016;8.714;2024-02-28T04:40:42;-16261.94;;;-139.71;93.22
3598;BME280;1813;52.016;8.714;2024-02-28T04:43:18;-16261.94;;;-139.71;93.63
3598;BME280;1813;52.016;8.714;2024-02-28T04:45:52;-16261.94;;;-139.71;94.11
3598;BME280;1813;52.016;8.714;2024-02-28T04:48:25;-16261.94;;;-139.71;94.61
3598;BME280;1813;52.016;8.714;2024-02-28T04:51:00;-16261.94;;;-139.71;95.06
3598;BME280;1813;52.016;8.714;2024-02-28T04:53:36;-16261.94;;;-139.71;95.32
3598;BME280;1813;52.016;8.714;2024-02-28T04:56:09;-16261.94;;;-139.71;95.43
3598;BME280;1813;52.016;8.714;2024-02-28T04:58:45;-16261.94;;;-139.71;95.71
3598;BME280;1813;52.016;8.714;2024-02-28T05:01:18;-16261.94;;;-139.71;95.90
3598;BME280;1813;52.016;8.714;2024-02-28T05:03:53;-16261.94;;;-139.71;96.32
3598;BME280;1813;52.016;8.714;2024-02-28T05:06:26;-16261.94;;;-139.71;96.56
3598;BME280;1813;52.016;8.714;2024-02-28T05:08:59;-16261.94;;;-139.71;96.61
3598;BME280;1813;52.016;8.714;2024-02-28T05:11:33;-16261.94;;;-139.71;96.41
3598;BME280;1813;52.016;8.714;2024-02-28T05:14:09;-16261.94;;;-139.71;96.27
3598;BME280;1813;52.016;8.714;2024-02-28T05:16:43;-16261.94;;;-139.71;96.23
3598;BME280;1813;52.016;8.714;2024-02-28T05:19:16;-16261.94;;;-139.71;96.33
3598;BME280;1813;52.016;8.714;2024-02-28T05:21:50;-16261.94;;;-139.71;96.59
3598;BME280;1813;52.016;8.714;2024-02-28T05:24:24;-16261.94;;;-139.71;96.84
3598;BME280;1813;52.016;8.714;2024-02-28T05:26:57;-16261.94;;;-139.71;96.95
3598;BME280;1813;52.016;8.714;2024-02-28T05:29:33;-16261.94;;;-139.71;97.02
3598;BME280;1813;52.016;8.714;2024-02-28T05:32:07;-16261.94;;;-139.71;97.48
3598;BME280;1813;52.016;8.714;2024-02-28T05:34:41;-16261.94;;;-139.71;97.78
3598;BME280;1813;52.016;8.714;2024-02-28T05:37:16;-16261.94;;;-139.71;98.03
3598;BME280;1813;52.016;8.714;2024-02-28T05:39:49;-16261.94;;;-139.71;98.38
3598;BME280;1813;52.016;8.714;2024-02-28T05:42:22;-16261.94;;;-139.71;98.54
3598;BME280;1813;52.016;8.714;2024-02-28T05:44:58;-16261.94;;;-139.71;98.69
3598;BME280;1813;52.016;8.714;2024-02-28T05:47:31;-16261.94;;;-139.71;98.82
3598;BME280;1813;52.016;8.714;2024-02-28T05:50:06;-16261.94;;;-139.71;99.14
3598;BME280;1813;52.016;8.714;2024-02-28T05:52:41;-16261.94;;;-139.71;99.33
3598;BME280;1813;52.016;8.714;2024-02-28T05:55:15;-16261.94;;;-139.71;99.80
3598;BME280;1813;52.016;8.714;2024-02-28T05:57:48;-16261.94;;;-139.71;100.00
3598;BME280;1813;52.016;8.714;2024-02-28T06:00:24;-16261.94;;;-139.71;100.00
3598;BME280;1813;52.016;8.714;2024-02-28T06:02:58;-16261.94;;;-139.71;100.00
3598;BME280;1813;52.016;8.714;2024-02-28T06:05:31;-16261.94;;;-139.71;100.00
3598;BME280;1813;52.016;8.714;2024-02-28T06:08:05;-16261.94;;;-139.71;100.00
3598;BME280;1813;52.016;8.714;2024-02-28T06:10:39;-16261.94;;;-139.71;100.00
3598;BME280;1813;52.016;8.714;2024-02-28T06:13:12;-16261.94;;;-139.71;100.00
3598;BME280;1813;52.016;8.714;2024-02-28T06:15:48;-16261.94;;;-139.71;100.00
3598;BME280;1813;52.016;8.714;2024-02-28T06:18:22;-16261.94;;;-139.71;100.00
3598;BME280;1813;52.016;8.714;2024-02-28T06:20:57;-16261.94;;;-139.71;100.00
3598;BME280;1813;52.016;8.714;2024-02-28T06:23:30;-16261.94;;;-139.71;100.00
3598;BME280;1813;52.016;8.714;2024-02-28T06:26:03;-16261.94;;;-139.71;100.00
3598;BME280;1813;52.016;8.714;2024-02-28T06:28:37;-16261.94;;;-139.71;100.00
3598;BME280;1813;52.016;8.714;2024-02-28T06:31:16;-16261.94;;;-139.71;100.00
3598;BME280;1813;52.016;8.714;2024-02-28T06:33:50;-16261.94;;;-139.71;100.00
3598;BME280;1813;52.016;8.714;2024-02-28T06:36:23;-16261.94;;;-139.71;100.00
3598;BME280;1813;52.016;8.714;2024-02-28T06:38:57;-16261.94;;;-139.71;100.00
3598;BME280;1813;52.016;8.714;2024-02-28T06:41:31;-16261.94;;;-139.71;100.00
3598;BME280;1813;52.016;8.714;2024-02-28T06:44:04;-16261.94;;;-139.71;100.00
3598;BME280;1813;52.016;8.714;2024-02-28T06:46:40;-16261.94;;;-139.71;100.00
3598;BME280;1813;52.016;8.714;2024-02-28T06:49:13;-16261.94;;;-139.71;100.00
3598;BME280;1813;52.016;8.714;2024-02-28T06:51:47;-16261.94;;;-139.71;100.00
3598;BME280;1813;52.016;8.714;2024-02-28T06:54:20;-16261.94;;;-139.71;100.00
3598;BME280;1813;52.016;8.714;2024-02-28T06:56:55;-16261.94;;;-139.71;100.00
3598;BME280;1813;52.016;8.714;2024-02-28T06:59:28;-16261.94;;;-139.71;100.00
3598;BME280;1813;52.016;8.714;2024-02-28T07:02:04;-16261.94;;;-139.71;100.00
3598;BME280;1813;52.016;8.714;2024-02-28T07:04:39;-16261.94;;;-139.71;100.00
3598;BME280;1813;52.016;8.714;2024-02-28T07:07:12;-16261.94;;;-139.71;100.00
3598;BME280;1813;52.016;8.714;2024-02-28T07:09:45;-16261.94;;;-139.71;100.00
3598;BME280;1813;52.016;8.714;2024-02-28T07:12:19;-16261.94;;;-139.71;100.00
3598;BME280;1813;52.016;8.714;2024-02-28T07:14:52;-16261.94;;;-139.71;100.00
3598;BME280;1813;52.016;8.714;2024-02-28T07:17:28;-16261.94;;;-139.71;100.00
3598;BME280;1813;52.016;8.714;2024-02-28T07:20:02;-16261.94;;;-139.71;100.00
3598;BME280;1813;52.016;8.714;2024-02-28T07:22:35;-16261.94;;;-139.71;100.00
3598;BME280;1813;52.016;8.714;2024-02-28T07:25:09;-16261.94;;;-139.71;100.00
3598;BME280;1813;52.016;8.714;2024-02-28T07:27:42;-16261.94;;;-139.71;100.00
3598;BME280;1813;52.016;8.714;2024-02-28T07:30:16;-16261.94;;;-139.71;100.00
3598;BME280;1813;52.016;8.714;2024-02-28T07:32:52;-16261.94;;;-139.71;100.00
3598;BME280;1813;52.016;8.714;2024-02-28T07:35:25;-16261.94;;;-139.71;100.00
3598;BME280;1813;52.016;8.714;2024-02-28T07:38:01;-16261.94;;;-139.71;100.00
3598;BME280;1813;52.016;8.714;2024-02-28T07:40:34;-16261.94;;;-139.71;100.00
3598;BME280;1813;52.016;8.714;2024-02-28T07:43:08;-16261.94;;;-139.71;100.00
3598;BME280;1813;52.016;8.714;2024-02-28T07:45:41;-16261.94;;;-139.71;100.00
3598;BME280;1813;52.016;8.714;2024-02-28T07:48:17;-16261.94;;;-139.71;100.00
3598;BME280;1813;52.016;8.714;2024-02-28T07:50:50;-16261.94;;;-139.71;100.00
3598;BME280;1813;52.016;8.714;2024-02-28T07:53:23;-16261.94;;;-139.71;100.00
3598;BME280;1813;52.016;8.714;2024-02-28T07:55:57;-16261.94;;;-139.71;100.00
3598;BME280;1813;52.016;8.714;2024-02-28T07:58:30;-16261.94;;;-139.71;100.00
3598;BME280;1813;52.016;8.714;2024-02-28T08:01:03;-16261.94;;;-139.71;100.00
3598;BME280;1813;52.016;8.714;2024-02-28T08:03:39;-16261.94;;;-139.71;100.00
3598;BME280;1813;52.016;8.714;2024-02-28T08:06:13;-16261.94;;;-139.71;100.00
3598;BME280;1813;52.016;8.714;2024-02-28T08:08:46;-16261.94;;;-139.71;100.00
3598;BME280;1813;52.016;8.714;2024-02-28T08:11:20;-16261.94;;;-139.71;100.00
3598;BME280;1813;52.016;8.714;2024-02-28T08:13:51;-16261.94;;;-139.71;100.00
3598;BME280;1813;52.016;8.714;2024-02-28T08:16:24;-16261.94;;;-139.71;100.00
3598;BME280;1813;52.016;8.714;2024-02-28T08:19:00;-16261.94;;;-139.71;100.00
3598;BME280;1813;52.016;8.714;2024-02-28T08:21:33;-16261.94;;;-139.71;100.00
3598;BME280;1813;52.016;8.714;2024-02-28T08:24:07;-16261.94;;;-139.71;100.00
3598;BME280;1813;52.016;8.714;2024-02-28T08:26:40;-16261.94;;;-139.71;100.00
3598;BME280;1813;52.016;8.714;2024-02-28T08:29:14;-16261.94;;;-139.71;100.00
3598;BME280;1813;52.016;8.714;2024-02-28T08:31:47;-16261.94;;;-139.71;100.00
3598;BME280;1813;52.016;8.714;2024-02-28T08:34:23;-16261.94;;;-139.71;100.00
3598;BME280;1813;52.016;8.714;2024-02-28T08:36:57;-16261.94;;;-139.71;100.00
3598;BME280;1813;52.016;8.714;2024-02-28T08:39:30;-16261.94;;;-139.71;100.00
3598;BME280;1813;52.016;8.714;2024-02-28T08:42:04;-16261.94;;;-139.71;100.00
3598;BME280;1813;52.016;8.714;2024-02-28T08:44:38;-16261.94;;;-139.71;100.00
3598;BME280;1813;52.016;8.714;2024-02-28T08:47:12;-16261.94;;;-139.71;100.00
3598;BME280;1813;52.016;8.714;2024-02-28T08:49:48;-16261.94;;;-139.71;100.00
3598;BME280;1813;52.016;8.714;2024-02-28T08:52:21;-16261.94;;;-139.71;100.00
3598;BME280;1813;52.016;8.714;2024-02-28T08:54:55;-16261.94;;;-139.71;100.00
3598;BME280;1813;52.016;8.714;2024-02-28T08:57:28;-16261.94;;;-139.71;100.00
3598;BME280;1813;52.016;8.714;2024-02-28T09:00:01;-16261.94;;;-139.71;100.00
3598;BME280;1813;52.016;8.714;2024-02-28T09:02:35;-16261.94;;;-139.71;100.00
3598;BME280;1813;52.016;8.714;2024-02-28T09:05:11;-16261.94;;;-139.71;100.00
3598;BME280;1813;52.016;8.714;2024-02-28T09:07:44;-16261.94;;;-139.71;100.00
3598;BME280;1813;52.016;8.714;2024-02-28T09:10:21;-16261.94;;;-139.71;100.00
3598;BME280;1813;52.016;8.714;2024-02-28T09:12:55;-16261.94;;;-139.71;100.00
3598;BME280;1813;52.016;8.714;2024-02-28T09:15:28;-16261.94;;;-139.71;100.00
3598;BME280;1813;52.016;8.714;2024-02-28T09:18:01;-16261.94;;;-139.71;100.00
3598;BME280;1813;52.016;8.714;2024-02-28T09:20:37;-16261.94;;;-139.71;100.00
3598;BME280;1813;52.016;8.714;2024-02-28T09:23:11;-16261.94;;;-139.71;100.00
3598;BME280;1813;52.016;8.714;2024-02-28T09:25:44;-16261.94;;;-139.71;100.00
3598;BME280;1813;52.016;8.714;2024-02-28T09:28:18;-16261.94;;;-139.71;100.00
3598;BME280;1813;52.016;8.714;2024-02-28T09:30:51;-16261.94;;;-139.71;100.00
3598;BME280;1813;52.016;8.714;2024-02-28T09:33:24;-16261.94;;;-139.71;100.00
3598;BME280;1813;52.016;8.714;2024-02-28T09:36:01;-16261.94;;;-139.71;100.00
3598;BME280;1813;52.016;8.714;2024-02-28T09:38:34;-16261.94;;;-139.71;100.00
3598;BME280;1813;52.016;8.714;2024-02-28T09:41:09;-16261.94;;;-139.71;100.00
3598;BME280;1813;52.016;8.714;2024-02-28T09:43:47;-16261.94;;;-139.71;100.00
3598;BME280;1813;52.016;8.714;2024-02-28T09:46:22;-16261.94;;;-139.71;100.00
3598;BME280;1813;52.016;8.714;2024-02-28T09:48:55;-16261.94;;;-139.71;100.00
3598;BME280;1813;52.016;8.714;2024-02-28T09:51:33;-16261.94;;;-139.71;100.00
3598;BME280;1813;52.016;8.714;2024-02-28T09:54:07;-16261.94;;;-139.71;100.00
3598;BME280;1813;52.016;8.714;2024-02-28T09:56:40;-16261.94;;;-139.71;100.00
3598;BME280;1813;52.016;8.714;2024-02-28T09:59:14;-16261.94;;;-139.71;100.00
3598;BME280;1813;52.016;8.714;2024-02-28T10:01:56;-16261.94;;;-139.71;100.00
3598;BME280;1813;52.016;8.714;2024-02-28T10:04:30;-16261.94;;;-139.71;100.00
3598;BME280;1813;52.016;8.714;2024-02-28T10:07:13;-16261.94;;;-139.71;100.00
3598;BME280;1813;52.016;8.714;2024-02-28T10:09:46;-16261.94;;;-139.71;100.00
3598;BME280;1813;52.016;8.714;2024-02-28T10:12:20;-16261.94;;;-139.71;100.00
3598;BME280;1813;52.016;8.714;2024-02-28T10:14:53;-16261.94;;;-139.71;100.00
3598;BME280;1813;52.016;8.714;2024-02-28T10:17:26;-16261.94;;;-139.71;100.00
3598;BME280;1813;52.016;8.714;2024-02-28T10:20:00;-16261.94;;;-139.71;100.00
3598;BME280;1813;52.016;8.714;2024-02-28T10:22:37;-16261.94;;;-139.71;100.00
3598;BME280;1813;52.016;8.714;2024-02-28T10:25:11;-16261.94;;;-139.71;100.00
3598;BME280;1813;52.016;8.714;2024-02-28T10:27:46;-16261.94;;;-139.71;100.00
3598;BME280;1813;52.016;8.714;2024-02-28T10:30:20;-16261.94;;;-139.71;100.00
3598;BME280;1813;52.016;8.714;2024-02-28T10:32:53;-16261.94;;;-139.71;100.00
3598;BME280;1813;52.016;8.714;2024-02-28T10:35:27;-16261.94;;;-139.71;100.00
3598;BME280;1813;52.016;8.714;2024-02-28T10:38:03;-16261.94;;;-139.71;100.00
3598;BME280;1813;52.016;8.714;2024-02-28T10:40:37;-16261.94;;;-139.71;100.00
3598;BME280;1813;52.016;8.714;2024-02-28T10:43:10;-16261.94;;;-139.71;100.00
3598;BME280;1813;52.016;8.714;2024-02-28T10:45:44;-16261.94;;;-139.71;100.00
3598;BME280;1813;52.016;8.714;2024-02-28T10:48:18;-16261.94;;;-139.71;100.00
3598;BME280;1813;52.016;8.714;2024-02-28T10:50:53;-16261.94;;;-139.71;100.00
3598;BME280;1813;52.016;8.714;2024-02-28T10:53:35;-16261.94;;;-139.71;100.00
3598;BME280;1813;52.016;8.714;2024-02-28T10:56:11;-16261.94;;;-139.71;100.00
3598;BME280;1813;52.016;8.714;2024-02-28T10:58:50;-16261.94;;;-139.71;100.00
3598;BME280;1813;52.016;8.714;2024-02-28T11:01:24;-16261.94;;;-139.71;100.00
3598;BME280;1813;52.016;8.714;2024-02-28T11:03:58;-16261.94;;;-139.71;100.00
3598;BME280;1813;52.016;8.714;2024-02-28T11:06:32;-16261.94;;;-139.71;100.00
3598;BME280;1813;52.016;8.714;2024-02-28T11:09:09;-16261.94;;;-139.71;100.00
3598;BME280;1813;52.016;8.714;2024-02-28T11:11:44;-16261.94;;;-139.71;100.00
3598;BME280;1813;52.016;8.714;2024-02-28T11:14:18;-16261.94;;;-139.71;100.00
3598;BME280;1813;52.016;8.714;2024-02-28T11:17:02;-16261.94;;;-139.71;100.00
3598;BME280;1813;52.016;8.714;2024-02-28T11:19:35;-16261.94;;;-139.71;100.00
3598;BME280;1813;52.016;8.714;2024-02-28T11:22:10;-16261.94;;;-139.71;100.00
3598;BME280;1813;52.016;8.714;2024-02-28T11:24:47;-16261.94;;;-139.71;100.00
3598;BME280;1813;52.016;8.714;2024-02-28T11:27:21;-16261.94;;;-139.71;100.00
3598;BME280;1813;52.016;8.714;2024-02-28T11:29:56;-16261.94;;;-139.71;100.00
3598;BME280;1813;52.016;8.714;2024-02-28T11:32:29;-16261.94;;;-139.71;100.00
3598;BME280;1813;52.016;8.714;2024-02-28T11:35:04;-16261.94;;;-139.71;100.00
3598;BME280;1813;52.016;8.714;2024-02-28T11:37:38;-16261.94;;;-139.71;99.85
3598;BME280;1813;52.016;8.714;2024-02-28T11:40:14;-16261.94;;;-139.71;99.41
3598;BME280;1813;52.016;8.714;2024-02-28T11:42:48;-16261.94;;;-139.71;99.13
3598;BME280;1813;52.016;8.714;2024-02-28T11:45:22;-16261.94;;;-139.71;99.14
3598;BME280;1813;52.016;8.714;2024-02-28T11:47:56;-16261.94;;;-139.71;98.79
3598;BME280;1813;52.016;8.714;2024-02-28T11:50:29;-16261.94;;;-139.71;98.95
3598;BME280;1813;52.016;8.714;2024-02-28T11:53:03;-16261.94;;;-139.71;99.15
3598;BME280;1813;52.016;8.714;2024-02-28T11:55:39;-16261.94;;;-139.71;99.00
3598;BME280;1813;52.016;8.714;2024-02-28T11:58:13;-16261.94;;;-139.71;98.64
3598;BME280;1813;52.016;8.714;2024-02-28T12:00:47;-16261.94;;;-139.71;98.28
3598;BME280;1813;52.016;8.714;2024-02-28T12:03:21;-16261.94;;;-139.71;98.45
3598;BME280;1813;52.016;8.714;2024-02-28T12:05:55;-16261.94;;;-139.71;97.95
3598;BME280;1813;52.016;8.714;2024-02-28T12:08:29;-16261.94;;;-139.71;97.28
3598;BME280;1813;52.016;8.714;2024-02-28T12:11:09;-16261.94;;;-139.71;97.28
3598;BME280;1813;52.016;8.714;2024-02-28T12:13:42;-16261.94;;;-139.71;97.17
3598;BME280;1813;52.016;8.714;2024-02-28T12:16:15;-16261.94;;;-139.71;97.07
3598;BME280;1813;52.016;8.714;2024-02-28T12:18:52;-16261.94;;;-139.71;97.03
3598;BME280;1813;52.016;8.714;2024-02-28T12:21:25;-16261.94;;;-139.71;96.61
3598;BME280;1813;52.016;8.714;2024-02-28T12:23:59;-16261.94;;;-139.71;96.32
3598;BME280;1813;52.016;8.714;2024-02-28T12:26:35;-16261.94;;;-139.71;96.17
3598;BME280;1813;52.016;8.714;2024-02-28T12:29:08;-16261.94;;;-139.71;96.10
3598;BME280;1813;52.016;8.714;2024-02-28T12:31:42;-16261.94;;;-139.71;96.41
3598;BME280;1813;52.016;8.714;2024-02-28T12:34:15;-16261.94;;;-139.71;96.26
3598;BME280;1813;52.016;8.714;2024-02-28T12:36:48;-16261.94;;;-139.71;96.84
3598;BME280;1813;52.016;8.714;2024-02-28T12:39:22;-16261.94;;;-139.71;97.19
3598;BME280;1813;52.016;8.714;2024-02-28T12:41:58;-16261.94;;;-139.71;96.81
3598;BME280;1813;52.016;8.714;2024-02-28T12:44:31;-16261.94;;;-139.71;97.04
3598;BME280;1813;52.016;8.714;2024-02-28T12:47:05;-16261.94;;;-139.71;97.64
3598;BME280;1813;52.016;8.714;2024-02-28T12:49:38;-16261.94;;;-139.71;97.43
3598;BME280;1813;52.016;8.714;2024-02-28T12:52:11;-16261.94;;;-139.71;96.86
3598;BME280;1813;52.016;8.714;2024-02-28T12:54:45;-16261.94;;;-139.71;96.72
3598;BME280;1813;52.016;8.714;2024-02-28T12:57:21;-16261.94;;;-139.71;96.28
3598;BME280;1813;52.016;8.714;2024-02-28T12:59:54;-16261.94;;;-139.71;95.71
3598;BME280;1813;52.016;8.714;2024-02-28T13:02:28;-16261.94;;;-139.71;95.37
3598;BME280;1813;52.016;8.714;2024-02-28T13:05:02;-16261.94;;;-139.71;95.88
3598;BME280;1813;52.016;8.714;2024-02-28T13:07:35;-16261.94;;;-139.71;96.07
3598;BME280;1813;52.016;8.714;2024-02-28T13:10:09;-16261.94;;;-139.71;95.70
3598;BME280;1813;52.016;8.714;2024-02-28T13:12:45;-16261.94;;;-139.71;95.79
3598;BME280;1813;52.016;8.714;2024-02-28T13:15:18;-16261.94;;;-139.71;95.88
3598;BME280;1813;52.016;8.714;2024-02-28T13:17:51;-16261.94;;;-139.71;95.88
3598;BME280;1813;52.016;8.714;2024-02-28T13:20:25;-16261.94;;;-139.71;95.89